sensor_id;sensor_type;location;lat;lon;timestamp;P1;durP1;ratioP1;P2;durP2;ratioP2
24381;SDS011;12502;50.678;7.172;2022-08-21T00:01:28;9.48;;;6.47;;
24381;SDS011;12502;50.678;7.172;2022-08-21T00:06:34;14.77;;;6.53;;
24381;SDS011;12502;50.678;7.172;2022-08-21T00:11:39;10.00;;;5.90;;
24381;SDS011;12502;50.678;7.172;2022-08-21T00:16:41;12.50;;;6.55;;
24381;SDS011;12502;50.678;7.172;2022-08-21T00:21:45;12.13;;;6.68;;
24381;SDS011;12502;50.678;7.172;2022-08-21T00:26:49;11.50;;;6.00;;
24381;SDS011;12502;50.678;7.172;2022-08-21T00:36:56;8.10;;;5.60;;
24381;SDS011;12502;50.678;7.172;2022-08-21T00:41:58;8.52;;;5.57;;
24381;SDS011;12502;50.678;7.172;2022-08-21T00:47:00;11.13;;;6.18;;
24381;SDS011;12502;50.678;7.172;2022-08-21T00:52:02;8.40;;;6.00;;
24381;SDS011;12502;50.678;7.172;2022-08-21T00:57:19;10.35;;;6.10;;
24381;SDS011;12502;50.678;7.172;2022-08-21T01:02:25;9.05;;;5.60;;
24381;SDS011;12502;50.678;7.172;2022-08-21T01:07:27;11.57;;;6.43;;
24381;SDS011;12502;50.678;7.172;2022-08-21T01:12:31;10.60;;;5.85;;
24381;SDS011;12502;50.678;7.172;2022-08-21T01:17:34;13.35;;;6.20;;
24381;SDS011;12502;50.678;7.172;2022-08-21T01:22:37;14.70;;;6.30;;
24381;SDS011;12502;50.678;7.172;2022-08-21T01:27:39;9.43;;;6.93;;
24381;SDS011;12502;50.678;7.172;2022-08-21T01:32:43;10.43;;;6.57;;
24381;SDS011;12502;50.678;7.172;2022-08-21T01:37:45;9.27;;;6.43;;
24381;SDS011;12502;50.678;7.172;2022-08-21T01:42:49;10.02;;;7.10;;
24381;SDS011;12502;50.678;7.172;2022-08-21T01:47:52;12.48;;;6.82;;
24381;SDS011;12502;50.678;7.172;2022-08-21T01:52:56;10.82;;;6.68;;
24381;SDS011;12502;50.678;7.172;2022-08-21T01:58:03;11.25;;;6.63;;
24381;SDS011;12502;50.678;7.172;2022-08-21T02:03:05;7.47;;;5.82;;
24381;SDS011;12502;50.678;7.172;2022-08-21T02:08:08;8.40;;;5.95;;
24381;SDS011;12502;50.678;7.172;2022-08-21T02:13:11;11.18;;;6.80;;
24381;SDS011;12502;50.678;7.172;2022-08-21T02:18:17;9.85;;;6.80;;
24381;SDS011;12502;50.678;7.172;2022-08-21T02:23:19;9.85;;;6.65;;
24381;SDS011;12502;50.678;7.172;2022-08-21T02:28:27;13.10;;;6.47;;
24381;SDS011;12502;50.678;7.172;2022-08-21T02:33:30;12.98;;;6.20;;
24381;SDS011;12502;50.678;7.172;2022-08-21T02:38:33;9.52;;;6.30;;
24381;SDS011;12502;50.678;7.172;2022-08-21T02:48:45;11.45;;;6.38;;
24381;SDS011;12502;50.678;7.172;2022-08-21T02:53:47;12.52;;;6.63;;
24381;SDS011;12502;50.678;7.172;2022-08-21T02:58:51;8.18;;;5.90;;
24381;SDS011;12502;50.678;7.172;2022-08-21T03:08:57;8.57;;;5.93;;
24381;SDS011;12502;50.678;7.172;2022-08-21T03:13:59;12.18;;;6.60;;
24381;SDS011;12502;50.678;7.172;2022-08-21T03:19:01;11.32;;;6.68;;
24381;SDS011;12502;50.678;7.172;2022-08-21T03:24:08;13.75;;;6.65;;
24381;SDS011;12502;50.678;7.172;2022-08-21T03:34:16;11.95;;;7.15;;
24381;SDS011;12502;50.678;7.172;2022-08-21T03:39:19;14.50;;;6.90;;
24381;SDS011;12502;50.678;7.172;2022-08-21T03:44:21;11.27;;;7.27;;
24381;SDS011;12502;50.678;7.172;2022-08-21T03:49:24;12.68;;;7.30;;
24381;SDS011;12502;50.678;7.172;2022-08-21T03:54:26;11.05;;;7.45;;
24381;SDS011;12502;50.678;7.172;2022-08-21T03:59:30;16.02;;;8.15;;
24381;SDS011;12502;50.678;7.172;2022-08-21T04:04:33;12.93;;;7.00;;
24381;SDS011;12502;50.678;7.172;2022-08-21T04:09:35;10.63;;;6.70;;
24381;SDS011;12502;50.678;7.172;2022-08-21T04:14:38;13.15;;;7.13;;
24381;SDS011;12502;50.678;7.172;2022-08-21T04:19:41;10.93;;;6.97;;
24381;SDS011;12502;50.678;7.172;2022-08-21T04:24:44;11.57;;;7.05;;
24381;SDS011;12502;50.678;7.172;2022-08-21T04:29:46;11.63;;;7.60;;
24381;SDS011;12502;50.678;7.172;2022-08-21T04:34:49;12.90;;;6.90;;
24381;SDS011;12502;50.678;7.172;2022-08-21T04:39:51;10.10;;;7.70;;
24381;SDS011;12502;50.678;7.172;2022-08-21T04:44:54;11.77;;;6.57;;
24381;SDS011;12502;50.678;7.172;2022-08-21T04:49:59;12.38;;;8.13;;
24381;SDS011;12502;50.678;7.172;2022-08-21T04:55:02;13.23;;;7.25;;
24381;SDS011;12502;50.678;7.172;2022-08-21T05:00:04;10.27;;;7.22;;
24381;SDS011;12502;50.678;7.172;2022-08-21T05:05:15;11.95;;;7.50;;
24381;SDS011;12502;50.678;7.172;2022-08-21T05:10:17;11.30;;;7.38;;
24381;SDS011;12502;50.678;7.172;2022-08-21T05:15:19;13.10;;;7.72;;
24381;SDS011;12502;50.678;7.172;2022-08-21T05:20:27;10.10;;;6.85;;
24381;SDS011;12502;50.678;7.172;2022-08-21T05:25:29;11.50;;;7.65;;
24381;SDS011;12502;50.678;7.172;2022-08-21T05:30:33;10.50;;;7.43;;
24381;SDS011;12502;50.678;7.172;2022-08-21T05:35:37;14.38;;;7.90;;
24381;SDS011;12502;50.678;7.172;2022-08-21T05:40:41;13.60;;;8.13;;
24381;SDS011;12502;50.678;7.172;2022-08-21T05:45:44;13.45;;;8.15;;
24381;SDS011;12502;50.678;7.172;2022-08-21T05:50:47;14.90;;;8.23;;
24381;SDS011;12502;50.678;7.172;2022-08-21T05:55:50;12.80;;;8.05;;
24381;SDS011;12502;50.678;7.172;2022-08-21T06:00:53;13.63;;;8.82;;
24381;SDS011;12502;50.678;7.172;2022-08-21T06:05:56;15.13;;;8.68;;
24381;SDS011;12502;50.678;7.172;2022-08-21T06:10:59;14.65;;;7.90;;
24381;SDS011;12502;50.678;7.172;2022-08-21T06:16:06;13.13;;;7.38;;
24381;SDS011;12502;50.678;7.172;2022-08-21T06:21:11;13.77;;;8.13;;
24381;SDS011;12502;50.678;7.172;2022-08-21T06:26:15;12.32;;;7.85;;
24381;SDS011;12502;50.678;7.172;2022-08-21T06:31:18;15.10;;;9.13;;
24381;SDS011;12502;50.678;7.172;2022-08-21T06:36:23;14.18;;;8.45;;
24381;SDS011;12502;50.678;7.172;2022-08-21T06:41:25;13.30;;;8.93;;
24381;SDS011;12502;50.678;7.172;2022-08-21T06:46:28;18.17;;;10.38;;
24381;SDS011;12502;50.678;7.172;2022-08-21T06:51:31;10.43;;;9.18;;
24381;SDS011;12502;50.678;7.172;2022-08-21T06:56:33;14.45;;;9.68;;
24381;SDS011;12502;50.678;7.172;2022-08-21T07:01:36;15.60;;;10.35;;
24381;SDS011;12502;50.678;7.172;2022-08-21T07:06:38;12.07;;;9.20;;
24381;SDS011;12502;50.678;7.172;2022-08-21T07:11:39;14.80;;;8.98;;
24381;SDS011;12502;50.678;7.172;2022-08-21T07:16:48;13.93;;;8.70;;
24381;SDS011;12502;50.678;7.172;2022-08-21T07:21:50;9.73;;;7.95;;
24381;SDS011;12502;50.678;7.172;2022-08-21T07:26:54;12.55;;;7.43;;
24381;SDS011;12502;50.678;7.172;2022-08-21T07:31:56;15.95;;;8.57;;
24381;SDS011;12502;50.678;7.172;2022-08-21T07:36:58;12.48;;;7.65;;
24381;SDS011;12502;50.678;7.172;2022-08-21T07:42:06;20.50;;;7.38;;
24381;SDS011;12502;50.678;7.172;2022-08-21T07:47:08;14.57;;;7.00;;
24381;SDS011;12502;50.678;7.172;2022-08-21T07:52:10;11.98;;;6.57;;
24381;SDS011;12502;50.678;7.172;2022-08-21T07:57:12;10.05;;;6.22;;
24381;SDS011;12502;50.678;7.172;2022-08-21T08:02:22;13.32;;;6.75;;
24381;SDS011;12502;50.678;7.172;2022-08-21T08:07:28;13.30;;;6.20;;
24381;SDS011;12502;50.678;7.172;2022-08-21T08:12:37;12.00;;;5.72;;
24381;SDS011;12502;50.678;7.172;2022-08-21T08:17:41;16.45;;;6.30;;
24381;SDS011;12502;50.678;7.172;2022-08-21T08:22:43;11.70;;;5.40;;
24381;SDS011;12502;50.678;7.172;2022-08-21T08:27:50;11.15;;;5.38;;
24381;SDS011;12502;50.678;7.172;2022-08-21T08:32:52;9.13;;;5.13;;
24381;SDS011;12502;50.678;7.172;2022-08-21T08:37:54;9.30;;;5.15;;
24381;SDS011;12502;50.678;7.172;2022-08-21T08:42:56;9.32;;;5.13;;
24381;SDS011;12502;50.678;7.172;2022-08-21T08:48:00;12.40;;;4.93;;
24381;SDS011;12502;50.678;7.172;2022-08-21T08:53:06;8.98;;;4.57;;
24381;SDS011;12502;50.678;7.172;2022-08-21T08:58:16;8.68;;;4.10;;
24381;SDS011;12502;50.678;7.172;2022-08-21T09:03:31;7.93;;;4.45;;
24381;SDS011;12502;50.678;7.172;2022-08-21T09:24:50;11.30;;;3.42;;
24381;SDS011;12502;50.678;7.172;2022-08-21T09:30:19;9.65;;;2.75;;
24381;SDS011;12502;50.678;7.172;2022-08-21T09:35:29;9.27;;;2.90;;
24381;SDS011;12502;50.678;7.172;2022-08-21T09:40:32;8.18;;;3.22;;
24381;SDS011;12502;50.678;7.172;2022-08-21T09:45:38;8.05;;;3.83;;
24381;SDS011;12502;50.678;7.172;2022-08-21T09:50:43;5.32;;;2.83;;
24381;SDS011;12502;50.678;7.172;2022-08-21T10:01:25;6.68;;;2.80;;
24381;SDS011;12502;50.678;7.172;2022-08-21T10:06:27;5.90;;;2.72;;
24381;SDS011;12502;50.678;7.172;2022-08-21T10:11:31;7.38;;;3.17;;
24381;SDS011;12502;50.678;7.172;2022-08-21T10:16:50;7.93;;;2.92;;
24381;SDS011;12502;50.678;7.172;2022-08-21T10:55:04;9.25;;;2.40;;
24381;SDS011;12502;50.678;7.172;2022-08-21T11:00:15;6.70;;;2.17;;
24381;SDS011;12502;50.678;7.172;2022-08-21T11:05:31;5.53;;;2.13;;
24381;SDS011;12502;50.678;7.172;2022-08-21T11:10:38;6.10;;;2.13;;
24381;SDS011;12502;50.678;7.172;2022-08-21T11:26:45;4.97;;;2.50;;
24381;SDS011;12502;50.678;7.172;2022-08-21T11:42:29;7.30;;;1.77;;
24381;SDS011;12502;50.678;7.172;2022-08-21T11:47:49;7.00;;;2.00;;
24381;SDS011;12502;50.678;7.172;2022-08-21T11:53:06;7.20;;;2.17;;
24381;SDS011;12502;50.678;7.172;2022-08-21T12:03:34;6.15;;;1.90;;
24381;SDS011;12502;50.678;7.172;2022-08-21T12:08:44;6.28;;;1.98;;
24381;SDS011;12502;50.678;7.172;2022-08-21T12:19:28;5.85;;;2.00;;
24381;SDS011;12502;50.678;7.172;2022-08-21T12:29:49;4.43;;;1.75;;
24381;SDS011;12502;50.678;7.172;2022-08-21T12:35:06;4.63;;;1.83;;
24381;SDS011;12502;50.678;7.172;2022-08-21T12:40:27;3.95;;;1.67;;
24381;SDS011;12502;50.678;7.172;2022-08-21T12:45:41;4.07;;;1.90;;
24381;SDS011;12502;50.678;7.172;2022-08-21T12:51:31;6.47;;;1.80;;
24381;SDS011;12502;50.678;7.172;2022-08-21T12:56:10;5.53;;;1.70;;
24381;SDS011;12502;50.678;7.172;2022-08-21T13:01:29;4.15;;;1.70;;
24381;SDS011;12502;50.678;7.172;2022-08-21T13:06:46;5.53;;;1.80;;
24381;SDS011;12502;50.678;7.172;2022-08-21T13:11:50;2.78;;;1.58;;
24381;SDS011;12502;50.678;7.172;2022-08-21T13:16:53;3.72;;;1.70;;
24381;SDS011;12502;50.678;7.172;2022-08-21T13:21:57;4.57;;;1.65;;
24381;SDS011;12502;50.678;7.172;2022-08-21T13:26:59;4.35;;;1.63;;
24381;SDS011;12502;50.678;7.172;2022-08-21T13:32:03;4.95;;;1.65;;
24381;SDS011;12502;50.678;7.172;2022-08-21T13:37:10;3.90;;;1.52;;
24381;SDS011;12502;50.678;7.172;2022-08-21T13:42:18;3.60;;;1.40;;
24381;SDS011;12502;50.678;7.172;2022-08-21T13:47:21;5.20;;;1.60;;
24381;SDS011;12502;50.678;7.172;2022-08-21T13:52:24;5.57;;;1.80;;
24381;SDS011;12502;50.678;7.172;2022-08-21T13:57:29;4.93;;;1.52;;
24381;SDS011;12502;50.678;7.172;2022-08-21T14:02:38;4.70;;;1.55;;
24381;SDS011;12502;50.678;7.172;2022-08-21T14:07:42;4.22;;;1.77;;
24381;SDS011;12502;50.678;7.172;2022-08-21T14:12:56;3.67;;;1.45;;
24381;SDS011;12502;50.678;7.172;2022-08-21T14:18:13;3.20;;;1.60;;
24381;SDS011;12502;50.678;7.172;2022-08-21T14:23:24;4.30;;;2.05;;
24381;SDS011;12502;50.678;7.172;2022-08-21T14:28:28;4.28;;;1.60;;
24381;SDS011;12502;50.678;7.172;2022-08-21T14:33:35;5.28;;;1.92;;
24381;SDS011;12502;50.678;7.172;2022-08-21T14:38:38;4.07;;;1.63;;
24381;SDS011;12502;50.678;7.172;2022-08-21T14:43:41;4.05;;;1.70;;
24381;SDS011;12502;50.678;7.172;2022-08-21T14:48:44;5.28;;;1.70;;
24381;SDS011;12502;50.678;7.172;2022-08-21T14:53:47;2.38;;;1.48;;
24381;SDS011;12502;50.678;7.172;2022-08-21T14:58:49;3.58;;;1.60;;
24381;SDS011;12502;50.678;7.172;2022-08-21T15:03:56;9.07;;;2.60;;
24381;SDS011;12502;50.678;7.172;2022-08-21T15:08:58;6.13;;;1.95;;
24381;SDS011;12502;50.678;7.172;2022-08-21T15:14:01;6.13;;;2.08;;
24381;SDS011;12502;50.678;7.172;2022-08-21T15:19:05;3.03;;;1.70;;
24381;SDS011;12502;50.678;7.172;2022-08-21T15:24:06;5.30;;;1.80;;
24381;SDS011;12502;50.678;7.172;2022-08-21T15:29:08;5.05;;;1.80;;
24381;SDS011;12502;50.678;7.172;2022-08-21T15:34:10;6.10;;;1.90;;
24381;SDS011;12502;50.678;7.172;2022-08-21T15:39:12;4.55;;;1.80;;
24381;SDS011;12502;50.678;7.172;2022-08-21T15:44:14;6.20;;;1.98;;
24381;SDS011;12502;50.678;7.172;2022-08-21T15:49:17;4.18;;;2.00;;
24381;SDS011;12502;50.678;7.172;2022-08-21T15:54:18;4.88;;;1.83;;
24381;SDS011;12502;50.678;7.172;2022-08-21T15:59:20;6.20;;;1.90;;
24381;SDS011;12502;50.678;7.172;2022-08-21T16:04:25;7.47;;;2.13;;
24381;SDS011;12502;50.678;7.172;2022-08-21T16:09:28;4.38;;;1.92;;
24381;SDS011;12502;50.678;7.172;2022-08-21T16:14:30;7.47;;;1.50;;
24381;SDS011;12502;50.678;7.172;2022-08-21T16:24:37;6.90;;;1.90;;
24381;SDS011;12502;50.678;7.172;2022-08-21T16:29:40;4.43;;;2.00;;
24381;SDS011;12502;50.678;7.172;2022-08-21T16:34:44;5.32;;;1.85;;
24381;SDS011;12502;50.678;7.172;2022-08-21T16:39:50;4.07;;;1.45;;
24381;SDS011;12502;50.678;7.172;2022-08-21T16:44:57;4.95;;;1.58;;
24381;SDS011;12502;50.678;7.172;2022-08-21T16:49:59;8.82;;;1.90;;
24381;SDS011;12502;50.678;7.172;2022-08-21T16:55:04;6.72;;;1.80;;
24381;SDS011;12502;50.678;7.172;2022-08-21T17:00:13;4.93;;;1.70;;
24381;SDS011;12502;50.678;7.172;2022-08-21T17:05:16;9.52;;;2.10;;
24381;SDS011;12502;50.678;7.172;2022-08-21T17:10:18;5.35;;;1.83;;
24381;SDS011;12502;50.678;7.172;2022-08-21T17:15:22;2.90;;;1.67;;
24381;SDS011;12502;50.678;7.172;2022-08-21T17:20:26;6.00;;;2.13;;
24381;SDS011;12502;50.678;7.172;2022-08-21T17:25:29;4.95;;;1.90;;
24381;SDS011;12502;50.678;7.172;2022-08-21T17:30:31;5.72;;;1.60;;
24381;SDS011;12502;50.678;7.172;2022-08-21T17:35:35;6.13;;;2.05;;
24381;SDS011;12502;50.678;7.172;2022-08-21T17:40:38;9.13;;;2.23;;
24381;SDS011;12502;50.678;7.172;2022-08-21T17:45:40;3.85;;;1.70;;
24381;SDS011;12502;50.678;7.172;2022-08-21T17:50:44;7.05;;;2.05;;
24381;SDS011;12502;50.678;7.172;2022-08-21T17:55:46;4.65;;;1.85;;
24381;SDS011;12502;50.678;7.172;2022-08-21T18:00:49;4.63;;;2.38;;
24381;SDS011;12502;50.678;7.172;2022-08-21T18:05:51;7.55;;;2.47;;
24381;SDS011;12502;50.678;7.172;2022-08-21T18:10:55;3.17;;;1.73;;
24381;SDS011;12502;50.678;7.172;2022-08-21T18:15:58;3.28;;;1.50;;
24381;SDS011;12502;50.678;7.172;2022-08-21T18:21:01;5.10;;;1.60;;
24381;SDS011;12502;50.678;7.172;2022-08-21T18:26:03;5.00;;;1.90;;
24381;SDS011;12502;50.678;7.172;2022-08-21T18:31:07;5.57;;;2.08;;
24381;SDS011;12502;50.678;7.172;2022-08-21T18:36:10;7.03;;;1.95;;
24381;SDS011;12502;50.678;7.172;2022-08-21T18:41:12;5.20;;;1.92;;
24381;SDS011;12502;50.678;7.172;2022-08-21T18:46:14;5.50;;;1.73;;
24381;SDS011;12502;50.678;7.172;2022-08-21T18:51:17;6.88;;;2.20;;
24381;SDS011;12502;50.678;7.172;2022-08-21T18:56:19;5.85;;;1.90;;
24381;SDS011;12502;50.678;7.172;2022-08-21T19:01:21;5.75;;;2.20;;
24381;SDS011;12502;50.678;7.172;2022-08-21T19:06:24;6.38;;;2.08;;
24381;SDS011;12502;50.678;7.172;2022-08-21T19:11:26;7.43;;;2.20;;
24381;SDS011;12502;50.678;7.172;2022-08-21T19:16:29;6.40;;;2.50;;
24381;SDS011;12502;50.678;7.172;2022-08-21T19:21:31;6.15;;;2.28;;
24381;SDS011;12502;50.678;7.172;2022-08-21T19:26:33;4.80;;;2.30;;
24381;SDS011;12502;50.678;7.172;2022-08-21T19:31:40;4.07;;;2.00;;
24381;SDS011;12502;50.678;7.172;2022-08-21T19:36:43;4.32;;;1.88;;
24381;SDS011;12502;50.678;7.172;2022-08-21T19:41:46;6.03;;;1.83;;
24381;SDS011;12502;50.678;7.172;2022-08-21T19:46:52;3.80;;;1.95;;
24381;SDS011;12502;50.678;7.172;2022-08-21T19:51:57;6.78;;;2.10;;
24381;SDS011;12502;50.678;7.172;2022-08-21T19:57:03;6.30;;;2.25;;
24381;SDS011;12502;50.678;7.172;2022-08-21T20:02:07;6.30;;;2.35;;
24381;SDS011;12502;50.678;7.172;2022-08-21T20:07:10;4.50;;;2.60;;
24381;SDS011;12502;50.678;7.172;2022-08-21T20:12:13;5.28;;;2.85;;
24381;SDS011;12502;50.678;7.172;2022-08-21T20:17:16;6.65;;;2.47;;
24381;SDS011;12502;50.678;7.172;2022-08-21T20:22:21;5.18;;;2.70;;
24381;SDS011;12502;50.678;7.172;2022-08-21T20:32:27;4.15;;;2.10;;
24381;SDS011;12502;50.678;7.172;2022-08-21T20:37:33;11.23;;;3.17;;
24381;SDS011;12502;50.678;7.172;2022-08-21T20:42:41;5.93;;;2.60;;
24381;SDS011;12502;50.678;7.172;2022-08-21T20:47:47;5.63;;;2.30;;
24381;SDS011;12502;50.678;7.172;2022-08-21T20:53:15;5.78;;;2.83;;
24381;SDS011;12502;50.678;7.172;2022-08-21T20:58:44;6.30;;;2.58;;
24381;SDS011;12502;50.678;7.172;2022-08-21T21:03:54;4.93;;;2.47;;
24381;SDS011;12502;50.678;7.172;2022-08-21T21:14:57;7.13;;;2.00;;
24381;SDS011;12502;50.678;7.172;2022-08-21T21:19:46;4.18;;;1.98;;
24381;SDS011;12502;50.678;7.172;2022-08-21T21:30:20;4.63;;;2.67;;
24381;SDS011;12502;50.678;7.172;2022-08-21T21:35:32;7.25;;;3.33;;
24381;SDS011;12502;50.678;7.172;2022-08-21T21:41:51;7.28;;;2.72;;
24381;SDS011;12502;50.678;7.172;2022-08-21T21:46:42;5.43;;;2.70;;
24381;SDS011;12502;50.678;7.172;2022-08-21T22:02:53;5.05;;;2.22;;
24381;SDS011;12502;50.678;7.172;2022-08-21T22:08:16;6.30;;;1.98;;
24381;SDS011;12502;50.678;7.172;2022-08-21T22:13:39;4.20;;;2.00;;
24381;SDS011;12502;50.678;7.172;2022-08-21T22:18:59;6.28;;;2.10;;
24381;SDS011;12502;50.678;7.172;2022-08-21T22:24:22;6.88;;;2.10;;
24381;SDS011;12502;50.678;7.172;2022-08-21T22:29:40;4.03;;;2.30;;
24381;SDS011;12502;50.678;7.172;2022-08-21T22:34:43;5.40;;;2.35;;
24381;SDS011;12502;50.678;7.172;2022-08-21T22:40:11;6.47;;;2.20;;
24381;SDS011;12502;50.678;7.172;2022-08-21T22:45:20;4.30;;;1.92;;
24381;SDS011;12502;50.678;7.172;2022-08-21T23:06:21;2.97;;;1.92;;
24381;SDS011;12502;50.678;7.172;2022-08-21T23:11:40;6.07;;;2.20;;
24381;SDS011;12502;50.678;7.172;2022-08-21T23:39:13;8.38;;;2.65;;
